createdAt,value
2022-09-13T00:01:46.513Z,75.82
2022-09-13T00:04:15.857Z,78.05
2022-09-13T00:06:46.332Z,85.90
2022-09-13T00:09:17.040Z,83.70
2022-09-13T00:11:46.260Z,83.25
2022-09-13T00:14:15.396Z,83.28
2022-09-13T00:16:44.575Z,86.03
2022-09-13T00:19:13.794Z,83.22
2022-09-13T00:21:43.066Z,96.60
2022-09-13T00:24:12.659Z,95.65
2022-09-13T00:26:43.342Z,77.95
2022-09-13T00:29:12.570Z,84.93
2022-09-13T00:31:41.801Z,87.32
2022-09-13T00:34:11.172Z,73.70
2022-09-13T00:36:40.390Z,83.50
2022-09-13T00:39:10.615Z,84.20
2022-09-13T00:41:40.255Z,88.20
2022-09-13T00:44:55.137Z,86.10
2022-09-13T00:47:33.682Z,83.32
2022-09-13T00:50:12.923Z,80.10
2022-09-13T00:52:46.647Z,85.93
2022-09-13T00:55:22.722Z,89.43
2022-09-13T00:57:53.099Z,83.70
2022-09-13T01:00:25.721Z,87.18
2022-09-13T01:03:00.568Z,80.55
2022-09-13T01:05:37.853Z,74.15
2022-09-13T01:08:18.197Z,79.80
2022-09-13T01:10:49.755Z,73.45
2022-09-13T01:13:23.029Z,77.65
2022-09-13T01:15:54.122Z,83.80
2022-09-13T01:18:23.327Z,75.15
2022-09-13T01:21:44.916Z,69.85
2022-09-13T01:25:05.974Z,70.18
2022-09-13T01:27:49.460Z,45.40
2022-09-13T01:30:21.937Z,62.88
2022-09-13T01:33:09.357Z,60.40
2022-09-13T01:35:51.897Z,67.25
2022-09-13T01:38:40.533Z,44.47
2022-09-13T01:41:25.513Z,57.50
2022-09-13T01:44:04.933Z,53.60
2022-09-13T01:46:45.030Z,56.67
2022-09-13T01:49:21.561Z,50.65
2022-09-13T01:52:00.328Z,61.08
2022-09-13T01:54:39.885Z,42.58
2022-09-13T01:57:17.337Z,51.70
2022-09-13T01:59:52.624Z,61.08
2022-09-13T02:02:32.904Z,47.25
2022-09-13T02:05:10.058Z,52.97
2022-09-13T02:07:44.281Z,41.80
2022-09-13T02:10:22.190Z,59.45
2022-09-13T02:12:54.733Z,60.58
2022-09-13T02:15:28.517Z,32.55
2022-09-13T02:18:09.665Z,62.25
2022-09-13T02:20:44.491Z,44.42
2022-09-13T02:23:17.911Z,57.10
2022-09-13T02:25:49.861Z,50.08
2022-09-13T02:28:28.691Z,57.08
2022-09-13T02:31:00.731Z,41.67
2022-09-13T02:33:37.178Z,39.15
2022-09-13T02:36:10.031Z,45.50
2022-09-13T02:38:45.569Z,42.78
2022-09-13T02:41:20.261Z,39.33
2022-09-13T02:43:55.135Z,41.10
2022-09-13T02:46:41.024Z,47.92
2022-09-13T02:49:19.013Z,35.42
2022-09-13T02:51:57.171Z,31.40
2022-09-13T02:54:34.308Z,37.53
2022-09-13T02:57:10.855Z,33.60
2022-09-13T02:59:40.399Z,27.10
2022-09-13T03:02:15.391Z,28.50
2022-09-13T03:04:46.390Z,32.20
2022-09-13T03:07:16.507Z,33.95
2022-09-13T03:09:51.483Z,31.83
2022-09-13T03:12:49.105Z,28.55
2022-09-13T03:15:37.254Z,22.75
2022-09-13T03:18:21.418Z,24.08
2022-09-13T03:21:03.165Z,26.33
2022-09-13T03:23:50.380Z,25.08
2022-09-13T03:26:28.660Z,20.35
2022-09-13T03:29:15.118Z,22.98
2022-09-13T03:31:55.444Z,23.83
2022-09-13T03:34:35.102Z,26.40
2022-09-13T03:37:16.235Z,23.20
2022-09-13T03:39:52.355Z,22.55
2022-09-13T03:42:29.773Z,21.15
2022-09-13T03:45:02.020Z,26.73
2022-09-13T03:47:35.148Z,22.83
2022-09-13T03:50:07.328Z,28.15
2022-09-13T03:52:39.786Z,31.85
2022-09-13T03:55:11.538Z,25.10
2022-09-13T03:57:40.683Z,27.25
2022-09-13T04:00:14.118Z,32.97
2022-09-13T04:02:43.398Z,28.65
2022-09-13T04:05:12.720Z,32.33
2022-09-13T04:07:48.926Z,23.48
2022-09-13T04:10:18.082Z,27.92
2022-09-13T04:12:47.192Z,24.65
2022-09-13T04:15:16.924Z,23.15
2022-09-13T04:17:46.060Z,24.00
2022-09-13T04:20:15.734Z,26.75
2022-09-13T04:22:45.248Z,25.02
2022-09-13T04:25:16.247Z,27.42
2022-09-13T04:27:45.412Z,23.45
2022-09-13T04:30:15.295Z,21.33
2022-09-13T04:32:45.573Z,22.50
2022-09-13T04:35:17.212Z,23.33
2022-09-13T04:37:46.782Z,22.60
2022-09-13T04:40:17.612Z,21.67
2022-09-13T04:42:47.056Z,24.13
2022-09-13T04:45:16.326Z,24.02
2022-09-13T04:47:45.597Z,24.45
2022-09-13T04:50:14.820Z,22.30
2022-09-13T04:52:44.120Z,23.88
2022-09-13T04:55:13.387Z,21.98
2022-09-13T04:57:43.946Z,25.05
2022-09-13T05:00:13.932Z,24.15
2022-09-13T05:02:43.103Z,25.80
2022-09-13T05:05:12.298Z,26.48
2022-09-13T05:07:41.438Z,27.35
2022-09-13T05:10:12.750Z,27.58
2022-09-13T05:15:13.880Z,30.63
2022-09-13T05:17:43.162Z,23.73
2022-09-13T05:20:12.938Z,23.50
2022-09-13T05:22:42.054Z,22.42
2022-09-13T05:25:11.769Z,23.08
2022-09-13T05:27:40.941Z,24.35
2022-09-13T05:30:13.883Z,21.88
2022-09-13T05:32:43.064Z,25.80
2022-09-13T05:35:12.217Z,24.98
2022-09-13T05:37:41.383Z,24.60
2022-09-13T05:40:12.486Z,24.15
2022-09-13T05:42:42.191Z,21.65
2022-09-13T05:45:12.982Z,22.60
2022-09-13T05:47:42.127Z,21.65
2022-09-13T05:50:22.945Z,25.38
2022-09-13T05:53:00.896Z,23.35
2022-09-13T05:55:31.089Z,23.20
2022-09-13T05:58:00.235Z,23.65
2022-09-13T06:00:31.915Z,25.33
2022-09-13T06:03:01.121Z,22.00
2022-09-13T06:05:32.033Z,22.02
2022-09-13T06:08:01.289Z,23.55
2022-09-13T06:10:30.477Z,22.90
2022-09-13T06:12:59.591Z,24.30
2022-09-13T06:15:30.165Z,20.42
2022-09-13T06:17:59.659Z,22.38
2022-09-13T06:20:28.928Z,26.17
2022-09-13T06:22:58.009Z,25.65
2022-09-13T06:25:27.162Z,26.70
2022-09-13T06:27:56.450Z,24.05
2022-09-13T06:30:25.636Z,23.88
2022-09-13T06:32:57.830Z,22.70
2022-09-13T06:35:27.209Z,28.90
2022-09-13T06:37:58.889Z,25.38
2022-09-13T06:40:29.010Z,22.27
2022-09-13T06:42:58.439Z,23.38
2022-09-13T06:45:28.290Z,24.23
2022-09-13T06:47:59.081Z,26.17
2022-09-13T06:50:40.799Z,24.38
2022-09-13T06:53:10.448Z,23.85
2022-09-13T06:55:39.923Z,24.02
2022-09-13T06:58:14.710Z,27.20
2022-09-13T07:00:52.928Z,28.27
2022-09-13T07:03:28.349Z,45.83
2022-09-13T07:05:59.989Z,51.08
2022-09-13T07:08:32.682Z,65.10
2022-09-13T07:11:02.407Z,68.53
2022-09-13T07:13:31.613Z,77.10
2022-09-13T07:16:04.696Z,80.45
2022-09-13T07:18:35.734Z,80.10
2022-09-13T07:21:08.988Z,82.85
2022-09-13T07:23:41.301Z,79.30
2022-09-13T07:26:13.006Z,87.95
2022-09-13T07:28:44.238Z,82.30
2022-09-13T07:31:19.672Z,84.78
2022-09-13T07:33:55.576Z,90.50
2022-09-13T07:36:25.510Z,79.53
2022-09-13T07:38:58.792Z,85.93
2022-09-13T07:41:32.331Z,79.57
2022-09-13T07:44:03.112Z,65.68
2022-09-13T07:46:43.722Z,67.65
2022-09-13T07:49:21.602Z,72.18
2022-09-13T07:51:53.294Z,66.95
2022-09-13T07:54:22.519Z,57.75
2022-09-13T07:56:52.028Z,57.65
2022-09-13T07:59:21.456Z,47.40
2022-09-13T08:01:52.621Z,51.97
2022-09-13T08:04:27.158Z,54.75
2022-09-13T08:06:56.648Z,53.55
2022-09-13T08:09:27.966Z,49.17
2022-09-13T08:11:57.239Z,55.40
2022-09-13T08:14:29.632Z,53.10
2022-09-13T08:17:00.252Z,51.72
2022-09-13T08:19:31.051Z,52.10
2022-09-13T08:22:01.106Z,48.33
2022-09-13T08:24:30.265Z,54.85
2022-09-13T08:26:59.501Z,53.03
2022-09-13T08:29:28.651Z,54.22
2022-09-13T08:31:57.863Z,53.28
2022-09-13T08:34:27.368Z,52.25
2022-09-13T08:36:58.544Z,55.25
2022-09-13T08:39:29.313Z,53.70
2022-09-13T08:42:21.045Z,58.08
2022-09-13T08:44:54.665Z,53.50
2022-09-13T08:47:35.841Z,50.85
2022-09-13T08:50:17.441Z,51.15
2022-09-13T08:53:10.015Z,52.58
2022-09-13T08:55:52.703Z,52.85
2022-09-13T09:01:48.622Z,48.33
2022-09-13T09:04:36.258Z,51.15
2022-09-13T09:07:14.623Z,55.97
2022-09-13T09:09:52.460Z,55.78
2022-09-13T09:12:35.335Z,54.05
2022-09-13T09:15:21.457Z,50.67
2022-09-13T09:18:01.371Z,59.45
2022-09-13T09:20:39.151Z,58.07
2022-09-13T09:23:20.975Z,61.90
2022-09-13T09:26:02.209Z,64.95
2022-09-13T09:28:31.763Z,67.70
2022-09-13T09:31:06.274Z,64.32
2022-09-13T09:34:02.326Z,59.50
2022-09-13T09:36:43.434Z,60.75
2022-09-13T09:39:16.455Z,69.05
2022-09-13T09:41:47.673Z,74.32
2022-09-13T09:44:22.806Z,67.93
2022-09-13T09:47:03.575Z,84.90
2022-09-13T09:50:00.072Z,70.63
2022-09-13T09:52:37.116Z,50.30
2022-09-13T09:55:27.026Z,75.03
2022-09-13T09:58:01.551Z,79.90
2022-09-13T10:00:36.644Z,65.20
2022-09-13T10:03:19.177Z,103.72
2022-09-13T10:05:48.981Z,106.30
2022-09-13T10:08:32.300Z,99.95
2022-09-13T10:11:03.293Z,127.75
2022-09-13T10:13:34.654Z,140.35
2022-09-13T10:16:24.837Z,162.00
2022-09-13T10:18:59.872Z,104.60
2022-09-13T10:21:30.687Z,135.45
2022-09-13T10:24:22.803Z,125.63
2022-09-13T10:26:57.070Z,139.57
2022-09-13T10:29:29.745Z,115.40
2022-09-13T10:32:03.784Z,86.70
2022-09-13T10:34:39.769Z,121.38
2022-09-13T10:37:21.685Z,88.00
2022-09-13T10:40:04.039Z,103.68
2022-09-13T10:42:37.170Z,87.95
2022-09-13T10:45:10.728Z,100.05
2022-09-13T10:47:46.457Z,107.18
2022-09-13T10:50:25.205Z,98.80
2022-09-13T10:52:56.395Z,104.95
2022-09-13T10:55:36.148Z,71.32
2022-09-13T10:58:19.395Z,94.50
2022-09-13T11:01:38.289Z,72.47
2022-09-13T11:05:07.016Z,66.63
2022-09-13T11:08:24.103Z,65.95
2022-09-13T11:11:11.319Z,58.17
2022-09-13T11:14:04.400Z,62.17
2022-09-13T11:16:54.535Z,72.78
2022-09-13T11:20:13.470Z,113.90
2022-09-13T11:23:23.773Z,61.38
2022-09-13T11:26:14.375Z,65.60
2022-09-13T11:28:55.826Z,86.72
2022-09-13T11:31:43.171Z,66.93
2022-09-13T11:34:30.054Z,70.00
2022-09-13T11:37:17.845Z,82.22
2022-09-13T11:40:00.877Z,80.13
2022-09-13T11:42:44.606Z,84.28
2022-09-13T11:45:27.411Z,95.68
2022-09-13T11:50:57.678Z,64.95
2022-09-13T11:53:59.606Z,91.88
2022-09-13T11:56:35.826Z,131.25
2022-09-13T11:59:22.117Z,148.77
2022-09-13T12:01:56.915Z,145.68
2022-09-13T12:04:34.686Z,138.32
2022-09-13T12:07:11.753Z,174.38
2022-09-13T12:09:53.306Z,133.02
2022-09-13T12:12:26.452Z,161.60
2022-09-13T12:15:01.377Z,161.95
2022-09-13T12:17:36.397Z,165.40
2022-09-13T12:20:17.330Z,214.85
2022-09-13T12:22:49.146Z,181.70
2022-09-13T12:25:24.104Z,166.27
2022-09-13T12:28:05.765Z,156.45
2022-09-13T12:30:43.995Z,159.50
2022-09-13T12:33:17.057Z,168.82
2022-09-13T12:36:02.176Z,160.98
2022-09-13T12:39:18.159Z,152.35
2022-09-13T12:42:07.822Z,159.02
2022-09-13T12:45:08.321Z,143.75
2022-09-13T12:48:15.304Z,154.27
2022-09-13T12:51:06.691Z,174.90
2022-09-13T12:54:07.599Z,162.00
2022-09-13T12:56:57.006Z,159.18
2022-09-13T12:59:50.817Z,151.35
2022-09-13T13:02:35.872Z,142.93
2022-09-13T13:05:19.406Z,176.98
2022-09-13T13:07:57.974Z,160.38
2022-09-13T13:10:33.171Z,171.38
2022-09-13T13:13:16.089Z,164.13
2022-09-13T13:16:25.467Z,131.93
2022-09-13T13:18:55.626Z,194.15
2022-09-13T13:21:33.865Z,121.38
2022-09-13T13:24:52.089Z,156.75
2022-09-13T13:27:48.391Z,164.35
2022-09-13T13:30:52.539Z,144.48
2022-09-13T13:33:27.369Z,180.65
2022-09-13T13:35:56.968Z,172.52
2022-09-13T13:38:47.674Z,153.98
2022-09-13T13:41:53.657Z,188.18
2022-09-13T13:45:22.390Z,208.73
2022-09-13T13:48:12.280Z,189.88
2022-09-13T13:51:20.429Z,255.13
2022-09-13T13:54:01.978Z,236.05
2022-09-13T13:56:49.986Z,198.95
2022-09-13T13:59:29.245Z,191.20
2022-09-13T14:02:02.057Z,160.60
2022-09-13T14:05:19.411Z,163.15
2022-09-13T14:08:27.326Z,128.73
2022-09-13T14:11:05.065Z,146.75
2022-09-13T14:13:54.787Z,134.68
2022-09-13T14:16:40.279Z,163.75
2022-09-13T14:19:24.363Z,182.05
2022-09-13T14:22:20.427Z,177.57
2022-09-13T14:24:51.317Z,141.30
2022-09-13T14:27:24.726Z,161.30
2022-09-13T14:29:58.860Z,198.43
2022-09-13T14:32:37.159Z,187.48
2022-09-13T14:35:30.755Z,223.75
2022-09-13T14:38:14.424Z,200.13
2022-09-13T14:40:49.353Z,125.97
2022-09-13T14:43:21.220Z,133.13
2022-09-13T14:45:59.489Z,135.05
2022-09-13T14:48:34.156Z,103.28
2022-09-13T14:51:09.893Z,131.88
2022-09-13T14:53:41.462Z,97.20
2022-09-13T14:56:18.138Z,125.40
2022-09-13T14:58:52.149Z,110.93
2022-09-13T15:01:29.960Z,114.60
2022-09-13T15:04:01.663Z,125.93
2022-09-13T15:06:33.835Z,103.40
2022-09-13T15:09:18.839Z,129.43
2022-09-13T15:12:01.183Z,136.20
2022-09-13T15:14:34.965Z,125.00
2022-09-13T15:17:14.259Z,111.50
2022-09-13T15:19:45.755Z,117.68
2022-09-13T15:22:20.965Z,117.38
2022-09-13T15:24:53.314Z,119.53
2022-09-13T15:27:30.664Z,111.82
2022-09-13T15:30:03.387Z,103.20
2022-09-13T15:32:43.143Z,92.70
2022-09-13T15:35:24.737Z,87.50
2022-09-13T15:38:02.214Z,98.53
2022-09-13T15:40:42.671Z,85.57
2022-09-13T15:43:11.851Z,122.45
2022-09-13T15:45:43.538Z,85.88
2022-09-13T15:48:26.455Z,98.07
2022-09-13T15:51:11.932Z,112.78
2022-09-13T15:53:46.875Z,119.28
2022-09-13T15:56:19.487Z,109.88
2022-09-13T16:01:20.303Z,95.38
2022-09-13T16:03:51.012Z,106.07
2022-09-13T16:06:24.441Z,113.93
2022-09-13T16:08:54.386Z,118.75
2022-09-13T16:11:23.554Z,128.68
2022-09-13T16:13:52.721Z,115.50
2022-09-13T16:16:22.176Z,123.05
2022-09-13T16:18:52.811Z,113.43
2022-09-13T16:21:22.041Z,129.35
2022-09-13T16:23:51.306Z,121.25
2022-09-13T16:26:20.432Z,153.43
2022-09-13T16:28:49.737Z,145.73
2022-09-13T16:31:20.295Z,138.13
2022-09-13T16:33:54.185Z,138.43
2022-09-13T16:36:23.823Z,122.82
2022-09-13T16:38:52.937Z,126.47
2022-09-13T16:41:22.561Z,130.80
2022-09-13T16:43:51.779Z,137.95
2022-09-13T16:46:21.105Z,127.32
2022-09-13T16:48:55.673Z,150.95
2022-09-13T16:51:25.773Z,155.85
2022-09-13T16:53:56.065Z,142.50
2022-09-13T16:56:27.407Z,162.85
2022-09-13T16:58:57.271Z,156.52
2022-09-13T17:01:29.395Z,157.90
2022-09-13T17:04:02.386Z,147.98
2022-09-13T17:06:32.528Z,154.63
2022-09-13T17:09:05.428Z,159.68
2022-09-13T17:11:38.630Z,146.02
2022-09-13T17:14:11.010Z,167.88
2022-09-13T17:16:44.580Z,198.05
2022-09-13T17:19:20.943Z,163.73
2022-09-13T17:21:51.561Z,168.32
2022-09-13T17:24:20.930Z,177.73
2022-09-13T17:26:50.077Z,152.48
2022-09-13T17:29:23.392Z,184.70
2022-09-13T17:31:52.715Z,203.88
2022-09-13T17:34:23.264Z,180.43
2022-09-13T17:36:52.577Z,174.38
2022-09-13T17:39:22.386Z,161.02
2022-09-13T17:41:51.706Z,163.35
2022-09-13T17:44:21.324Z,160.93
2022-09-13T17:46:50.718Z,162.30
2022-09-13T17:49:20.201Z,187.85
2022-09-13T17:51:50.833Z,165.30
2022-09-13T17:54:20.353Z,195.20
2022-09-13T17:56:51.622Z,167.73
2022-09-13T17:59:23.039Z,177.50
2022-09-13T18:01:54.881Z,188.82
2022-09-13T18:04:25.773Z,180.00
2022-09-13T18:06:56.567Z,177.88
2022-09-13T18:09:27.024Z,185.98
2022-09-13T18:11:56.184Z,194.85
2022-09-13T18:14:27.708Z,166.75
2022-09-13T18:16:58.144Z,177.13
2022-09-13T18:19:44.779Z,182.68
2022-09-13T18:22:17.342Z,151.85
2022-09-13T18:24:46.838Z,176.25
2022-09-13T18:27:16.111Z,149.40
2022-09-13T18:29:45.346Z,152.88
2022-09-13T18:32:14.594Z,144.02
2022-09-13T18:34:44.351Z,128.27
2022-09-13T18:37:13.735Z,143.35
2022-09-13T18:39:44.243Z,129.30
2022-09-13T18:42:13.494Z,116.93
2022-09-13T18:44:42.617Z,104.90
2022-09-13T18:47:13.120Z,96.75
2022-09-13T18:49:42.335Z,106.30
2022-09-13T18:52:12.460Z,100.57
2022-09-13T18:54:43.422Z,100.97
2022-09-13T18:57:12.658Z,88.07
2022-09-13T18:59:41.832Z,104.60
2022-09-13T19:02:11.965Z,92.85
2022-09-13T19:04:41.351Z,94.07
2022-09-13T19:07:10.811Z,79.90
2022-09-13T19:09:40.246Z,95.53
2022-09-13T19:12:11.096Z,98.80
2022-09-13T19:14:40.390Z,79.47
2022-09-13T19:17:09.713Z,89.38
2022-09-13T19:19:39.109Z,89.38
2022-09-13T19:22:08.401Z,87.35
2022-09-13T19:24:38.458Z,94.15
2022-09-13T19:27:07.664Z,86.13
2022-09-13T19:29:38.696Z,87.78
2022-09-13T19:32:07.991Z,96.05
2022-09-13T19:34:37.535Z,87.00
2022-09-13T19:37:06.981Z,88.78
2022-09-13T19:39:36.248Z,84.07
2022-09-13T19:42:05.929Z,85.32
2022-09-13T19:44:35.278Z,90.80
2022-09-13T19:47:53.106Z,86.70
2022-09-13T19:49:56.816Z,90.15
2022-09-13T19:52:26.181Z,93.50
2022-09-13T19:54:56.480Z,82.18
2022-09-13T19:57:26.696Z,76.97
2022-09-13T19:59:55.856Z,92.00
2022-09-13T20:02:26.746Z,94.60
2022-09-13T20:04:56.101Z,93.18
2022-09-13T20:07:25.456Z,84.75
2022-09-13T20:09:54.796Z,84.95
2022-09-13T20:12:24.321Z,84.97
2022-09-13T20:14:53.466Z,88.85
2022-09-13T20:17:22.646Z,93.93
2022-09-13T20:19:54.136Z,94.80
2022-09-13T20:22:23.364Z,83.40
2022-09-13T20:24:52.712Z,88.97
2022-09-13T20:27:22.096Z,87.97
2022-09-13T20:29:51.884Z,87.82
2022-09-13T20:32:21.247Z,91.88
2022-09-13T20:34:52.536Z,88.55
2022-09-13T20:37:22.686Z,88.10
2022-09-13T20:39:52.125Z,95.90
2022-09-13T20:42:21.598Z,100.15
2022-09-13T20:44:50.759Z,102.38
2022-09-13T20:47:20.058Z,97.60
2022-09-13T20:49:49.273Z,95.78
2022-09-13T20:52:19.877Z,114.60
2022-09-13T20:54:49.224Z,125.05
2022-09-13T20:57:18.600Z,112.72
2022-09-13T20:59:48.011Z,96.60
2022-09-13T21:02:17.274Z,103.45
2022-09-13T21:04:46.766Z,106.93
2022-09-13T21:07:33.762Z,109.63
2022-09-13T21:10:05.457Z,106.10
2022-09-13T21:12:35.859Z,109.93
2022-09-13T21:15:07.068Z,113.25
2022-09-13T21:17:36.596Z,107.22
2022-09-13T21:20:06.950Z,106.80
2022-09-13T21:22:37.226Z,107.90
2022-09-13T21:25:09.805Z,104.43
2022-09-13T21:27:41.721Z,114.60
2022-09-13T21:30:12.076Z,113.20
2022-09-13T21:32:42.034Z,114.70
2022-09-13T21:35:13.226Z,112.20
2022-09-13T21:37:42.718Z,115.32
2022-09-13T21:40:14.120Z,110.45
2022-09-13T21:42:43.355Z,113.13
2022-09-13T21:45:12.896Z,106.60
2022-09-13T21:47:42.179Z,105.28
2022-09-13T21:50:11.807Z,116.93
2022-09-13T21:52:41.726Z,95.20
2022-09-13T21:55:12.468Z,103.82
2022-09-13T21:57:43.970Z,102.90
2022-09-13T22:02:45.106Z,74.20
2022-09-13T22:05:14.832Z,90.78
2022-09-13T22:07:44.076Z,111.45
2022-09-13T22:10:14.605Z,113.07
2022-09-13T22:12:43.757Z,105.32
2022-09-13T22:15:13.214Z,114.30
2022-09-13T22:17:42.410Z,102.95
2022-09-13T22:20:12.166Z,95.88
2022-09-13T22:22:41.263Z,92.82
2022-09-13T22:25:10.918Z,98.63
2022-09-13T22:27:41.473Z,106.45
2022-09-13T22:30:12.289Z,102.55
2022-09-13T22:32:41.578Z,108.97
2022-09-13T22:35:11.592Z,104.68
2022-09-13T22:37:40.857Z,93.10
2022-09-13T22:40:11.493Z,90.97
2022-09-13T22:42:42.017Z,107.60
2022-09-13T22:45:11.873Z,89.38
2022-09-13T22:47:40.979Z,104.65
2022-09-13T22:50:11.006Z,111.60
2022-09-13T22:52:40.137Z,96.63
2022-09-13T22:55:10.197Z,100.15
2022-09-13T22:57:39.330Z,99.15
2022-09-13T23:00:12.834Z,98.78
2022-09-13T23:02:46.451Z,118.97
2022-09-13T23:05:17.090Z,113.10
2022-09-13T23:07:46.266Z,101.18
2022-09-13T23:10:15.601Z,102.00
2022-09-13T23:12:45.592Z,92.65
2022-09-13T23:15:16.426Z,108.10
2022-09-13T23:17:45.602Z,102.78
2022-09-13T23:20:14.883Z,92.88
2022-09-13T23:22:44.116Z,86.28
2022-09-13T23:25:13.344Z,90.15
2022-09-13T23:27:42.640Z,85.15
2022-09-13T23:30:13.100Z,93.53
2022-09-13T23:32:43.787Z,87.47
2022-09-13T23:35:12.898Z,88.20
2022-09-13T23:37:42.068Z,89.97
2022-09-13T23:40:12.020Z,85.57
2022-09-13T23:42:41.294Z,87.78
2022-09-13T23:45:12.249Z,78.32
2022-09-13T23:47:42.752Z,82.82
2022-09-13T23:50:12.211Z,91.18
2022-09-13T23:52:41.338Z,83.57
2022-09-13T23:55:14.732Z,89.32
2022-09-13T23:57:43.872Z,81.95
